Time;durP1;ratioP1;P1;durP2;ratioP2;P2;SDS_P1;SDS_P2;PMS_P1;PMS_P2;Temp;Humidity;BMP_temperature;BMP_pressure;BME280_temperature;BME280_humidity;BME280_pressure;Samples;Min_cycle;Max_cycle;Signal;HPM_P1;HPM_P2
2023/04/03 00:00:32;;;;;;;590.97;555.30;;;-0.10;99.90;;;;;;5071949;28;21001;-80
2023/04/03 00:03:01;;;;;;;589.03;553.17;;;-0.10;99.90;;;;;;5037366;28;20885;-81
2023/04/03 00:05:28;;;;;;;606.28;569.13;;;-0.30;99.90;;;;;;5051597;28;20455;-80
2023/04/03 00:07:55;;;;;;;615.58;577.92;;;-0.30;99.90;;;;;;5065950;28;20215;-81
2023/04/03 00:10:21;;;;;;;613.50;576.20;;;-0.40;99.90;;;;;;5072636;28;20659;-81
2023/04/03 00:12:48;;;;;;;611.10;574.57;;;-0.50;99.90;;;;;;5057543;28;20475;-80
2023/04/03 00:15:17;;;;;;;613.03;576.17;;;-0.50;99.90;;;;;;5055992;28;20458;-80
2023/04/03 00:17:45;;;;;;;628.05;588.42;;;-0.60;99.90;;;;;;5072862;28;20470;-80
2023/04/03 00:20:13;;;;;;;652.43;609.27;;;-0.60;99.90;;;;;;5075119;28;20196;-80
2023/04/03 00:22:40;;;;;;;652.28;609.90;;;-0.60;99.90;;;;;;5055791;28;20474;-80
2023/04/03 00:25:10;;;;;;;646.60;604.87;;;-0.80;99.90;;;;;;5055615;28;20794;-80
2023/04/03 00:27:39;;;;;;;656.50;613.80;;;-0.80;99.90;;;;;;5075396;28;20846;-80
2023/04/03 00:30:08;;;;;;;666.17;622.80;;;-0.80;99.90;;;;;;5075690;28;20454;-80
2023/04/03 00:32:35;;;;;;;671.47;627.10;;;-0.90;99.90;;;;;;5075204;28;20466;-80
2023/04/03 00:35:02;;;;;;;723.75;674.90;;;-0.90;99.90;;;;;;5075249;28;20291;-81
2023/04/03 00:37:30;;;;;;;717.37;668.30;;;-0.90;99.90;;;;;;5057501;28;20223;-80
2023/04/03 00:39:57;;;;;;;743.42;690.63;;;-0.80;99.90;;;;;;5055577;28;20455;-80
2023/04/03 00:42:24;;;;;;;752.42;698.72;;;-0.80;99.90;;;;;;5054693;28;20234;-80
2023/04/03 00:45:23;;;;;;;758.88;704.22;;;-0.70;99.90;;;;;;5055089;28;20220;-80
2023/04/03 00:47:51;;;;;;;769.40;711.72;;;-0.60;99.90;;;;;;5055411;28;20213;-80
2023/04/03 00:50:18;;;;;;;768.65;713.88;;;-0.50;99.90;;;;;;5054919;28;20280;-80
2023/04/03 00:52:48;;;;;;;764.38;710.28;;;-0.50;99.90;;;;;;5072944;28;20188;-80
2023/04/03 00:55:25;;;;;;;757.88;704.47;;;-0.60;99.90;;;;;;5075137;28;20196;-80
2023/04/03 00:57:53;;;;;;;744.72;693.13;;;-0.70;99.90;;;;;;5055824;28;20214;-80
2023/04/03 01:00:23;;;;;;;741.95;691.72;;;-0.70;99.90;;;;;;5056645;28;20350;-80
2023/04/03 01:02:51;;;;;;;730.90;680.85;;;-0.90;99.90;;;;;;5057558;28;20623;-80
2023/04/03 01:05:19;;;;;;;745.45;693.88;;;-0.80;99.90;;;;;;5073353;28;20196;-80
2023/04/03 01:07:49;;;;;;;747.13;694.10;;;-1.00;99.90;;;;;;5054889;28;20216;-80
2023/04/03 01:10:19;;;;;;;752.90;699.88;;;-0.90;99.90;;;;;;5054883;28;20201;-80
2023/04/03 01:12:47;;;;;;;763.17;708.00;;;-1.00;99.90;;;;;;5056832;28;20193;-81
2023/04/03 01:15:17;;;;;;;786.28;731.38;;;-1.00;99.90;;;;;;5074695;28;20571;-79
2023/04/03 01:17:45;;;;;;;792.47;736.67;;;-0.80;99.90;;;;;;5074376;28;20212;-79
2023/04/03 01:20:46;;;;;;;798.25;739.25;;;-0.80;99.90;;;;;;5055627;28;20285;-79
2023/04/03 01:23:23;;;;;;;793.15;733.90;;;-0.80;99.90;;;;;;5055287;28;20200;-80
2023/04/03 01:25:53;;;;;;;801.15;741.63;;;-1.00;99.90;;;;;;5074642;28;20196;-79
2023/04/03 01:28:22;;;;;;;804.13;744.80;;;-1.00;99.90;;;;;;5054935;28;20230;-79
2023/04/03 01:30:57;;;;;;;796.75;736.95;;;-1.10;99.90;;;;;;5054417;28;20204;-79
2023/04/03 01:33:26;;;;;;;801.15;739.47;;;-1.20;99.90;;;;;;5316313;22;20710;-80
2023/04/03 01:35:58;;;;;;;798.25;737.40;;;-1.20;99.90;;;;;;5036083;28;20193;-79
2023/04/03 01:38:25;;;;;;;819.88;758.83;;;-1.30;99.90;;;;;;5060077;28;20219;-80
2023/04/03 01:40:54;;;;;;;809.67;748.55;;;-1.30;99.90;;;;;;5054265;28;20599;-80
2023/04/03 01:43:21;;;;;;;818.45;756.85;;;-1.30;99.90;;;;;;5054557;28;20291;-80
2023/04/03 01:45:49;;;;;;;808.17;746.97;;;-1.40;99.90;;;;;;5074207;28;20243;-80
2023/04/03 01:48:31;;;;;;;817.22;754.83;;;-1.40;99.90;;;;;;5072544;28;20216;-80
2023/04/03 01:50:58;;;;;;;809.28;745.53;;;-1.50;99.90;;;;;;5073956;28;20188;-80
2023/04/03 01:53:25;;;;;;;810.30;746.22;;;-1.40;99.90;;;;;;5061739;28;20728;-80
2023/04/03 01:55:56;;;;;;;810.15;744.70;;;-1.40;99.90;;;;;;5054163;28;20280;-80
2023/04/03 01:58:24;;;;;;;807.72;742.70;;;-1.30;99.90;;;;;;5046380;28;20269;-80
2023/04/03 02:00:54;;;;;;;811.13;746.60;;;-1.30;99.90;;;;;;5074277;28;20204;-80
2023/04/03 02:03:25;;;;;;;815.83;751.17;;;-1.30;99.90;;;;;;5062495;28;20703;-80
2023/04/03 02:05:59;;;;;;;825.35;761.80;;;-1.20;99.90;;;;;;5053605;28;20684;-80
2023/04/03 02:08:28;;;;;;;813.67;749.15;;;-1.10;99.90;;;;;;5063388;28;20211;-80
2023/04/03 02:10:55;;;;;;;827.83;762.67;;;-1.20;99.90;;;;;;5073362;28;20196;-80
2023/04/03 02:13:22;;;;;;;821.95;758.78;;;-1.10;99.90;;;;;;5059843;28;20193;-80
2023/04/03 02:15:49;;;;;;;824.55;759.58;;;-1.10;99.90;;;;;;5053703;28;20207;-80
2023/04/03 02:18:19;;;;;;;825.50;760.70;;;-1.10;99.90;;;;;;5065558;28;20582;-80
2023/04/03 02:20:49;;;;;;;846.70;780.75;;;-1.20;99.90;;;;;;5073493;28;20200;-80
2023/04/03 02:23:36;;;;;;;839.78;773.67;;;-1.30;99.90;;;;;;5060517;28;20196;-80
2023/04/03 02:26:15;;;;;;;844.90;778.75;;;-1.40;99.90;;;;;;5053556;28;20205;-80
2023/04/03 02:28:42;;;;;;;838.15;772.00;;;-1.50;99.90;;;;;;5067824;28;20247;-80
2023/04/03 02:31:11;;;;;;;828.55;763.13;;;-1.50;99.90;;;;;;5073351;28;20231;-80
2023/04/03 02:33:39;;;;;;;820.97;755.45;;;-1.60;99.90;;;;;;5058431;28;20209;-80
2023/04/03 02:36:15;;;;;;;823.30;757.00;;;-1.60;99.90;;;;;;5052407;28;20277;-80
2023/04/03 02:38:45;;;;;;;825.55;759.60;;;-1.70;99.90;;;;;;5053317;28;20224;-80
2023/04/03 02:41:13;;;;;;;821.63;755.28;;;-1.70;99.90;;;;;;5058392;28;20234;-80
2023/04/03 02:43:45;;;;;;;824.53;758.10;;;-1.70;99.90;;;;;;5072382;28;20242;-80
2023/04/03 02:46:14;;;;;;;822.10;754.13;;;-1.80;99.90;;;;;;5067710;28;20189;-80
2023/04/03 02:48:44;;;;;;;827.20;759.38;;;-1.70;99.90;;;;;;5052531;28;20708;-80
2023/04/03 02:51:16;;;;;;;828.97;760.58;;;-1.70;99.90;;;;;;5056956;28;20271;-80
2023/04/03 02:53:48;;;;;;;837.38;770.60;;;-1.70;99.90;;;;;;5072179;28;20204;-80
2023/04/03 02:56:20;;;;;;;846.13;780.00;;;-1.50;99.90;;;;;;5068386;28;20189;-80
2023/04/03 02:58:47;;;;;;;852.85;786.10;;;-1.50;99.90;;;;;;5051749;28;20217;-80
2023/04/03 03:01:14;;;;;;;858.45;800.03;;;-1.30;99.90;;;;;;5060013;28;20192;-80
2023/04/03 03:03:41;;;;;;;866.53;803.78;;;-1.20;99.90;;;;;;5061391;28;20193;-80
2023/04/03 03:06:13;;;;;;;859.50;795.03;;;-1.00;99.90;;;;;;5064364;28;20283;-79
2023/04/03 03:08:41;;;;;;;858.05;790.03;;;-1.00;99.90;;;;;;5052233;28;20591;-79
2023/04/03 03:11:11;;;;;;;855.08;788.53;;;-1.10;99.90;;;;;;5034684;28;20224;-79
2023/04/03 03:13:40;;;;;;;844.30;777.63;;;-1.10;99.90;;;;;;5052140;28;20197;-77
2023/04/03 03:16:19;;;;;;;852.47;786.47;;;-1.20;99.90;;;;;;5052282;28;20236;-77
2023/04/03 03:18:50;;;;;;;850.28;782.92;;;-1.20;99.90;;;;;;5052322;28;20217;-77
2023/04/03 03:21:20;;;;;;;841.00;773.15;;;-1.20;99.90;;;;;;5068016;28;20725;-77
2023/04/03 03:23:51;;;;;;;816.92;750.60;;;-1.10;99.90;;;;;;5054717;28;20197;-77
2023/04/03 03:26:19;;;;;;;817.85;752.63;;;-1.20;99.90;;;;;;5053382;28;20193;-77
2023/04/03 03:28:50;;;;;;;758.67;699.55;;;-0.90;99.90;;;;;;5055130;28;20213;-77
2023/04/03 03:31:20;;;;;;;644.83;594.42;;;-0.70;99.90;;;;;;5034216;28;20201;-77
2023/04/03 03:33:49;;;;;;;574.05;530.20;;;-0.50;99.90;;;;;;5052087;28;20730;-79
2023/04/03 03:36:18;;;;;;;540.65;501.52;;;-0.30;99.90;;;;;;5052063;28;20200;-79
2023/04/03 03:38:51;;;;;;;497.42;464.42;;;-0.10;99.90;;;;;;5071651;28;20559;-80
2023/04/03 03:41:27;;;;;;;499.08;466.75;;;-0.10;99.90;;;;;;5056946;28;20212;-79
2023/04/03 03:43:59;;;;;;;485.58;453.92;;;-0.10;99.90;;;;;;5044985;28;20672;-77
2023/04/03 03:46:26;;;;;;;507.10;474.20;;;-0.10;99.90;;;;;;5070025;28;20196;-77
2023/04/03 03:48:56;;;;;;;509.48;477.63;;;-0.20;99.90;;;;;;5060972;28;20529;-77
2023/04/03 03:51:25;;;;;;;471.77;442.13;;;-0.20;99.90;;;;;;5068163;28;20212;-77
2023/04/03 03:53:53;;;;;;;455.52;427.30;;;-0.10;99.90;;;;;;5065404;28;20193;-77
2023/04/03 03:56:21;;;;;;;444.95;419.45;;;-0.10;99.90;;;;;;5053304;28;20280;-77
2023/04/03 03:58:50;;;;;;;444.20;419.50;;;0.00;99.90;;;;;;5053909;28;20223;-77
2023/04/03 04:01:17;;;;;;;449.27;424.03;;;-0.10;99.90;;;;;;5063153;28;20841;-77
2023/04/03 04:03:46;;;;;;;454.73;427.93;;;-0.20;99.90;;;;;;5051123;28;20459;-77
2023/04/03 04:06:15;;;;;;;439.00;413.70;;;-0.20;99.90;;;;;;5057173;28;20549;-77
2023/04/03 04:08:42;;;;;;;447.02;421.63;;;-0.20;99.90;;;;;;5051723;28;20498;-77
2023/04/03 04:11:21;;;;;;;440.65;414.70;;;-0.20;99.90;;;;;;5052594;28;20189;-78
2023/04/03 04:13:51;;;;;;;469.50;439.13;;;-0.20;99.90;;;;;;5051454;28;20197;-77
2023/04/03 04:16:20;;;;;;;462.02;435.05;;;-0.40;99.90;;;;;;5052152;28;20451;-77
2023/04/03 04:18:47;;;;;;;455.35;429.45;;;-0.40;99.90;;;;;;5055161;28;20235;-77
2023/04/03 04:21:16;;;;;;;486.93;457.57;;;-0.60;99.90;;;;;;5054988;28;20276;-76
2023/04/03 04:23:43;;;;;;;518.88;486.77;;;-0.60;99.90;;;;;;5068248;28;20470;-77
2023/04/03 04:26:14;;;;;;;541.27;507.37;;;-0.60;99.90;;;;;;5052132;28;20338;-77
2023/04/03 04:28:43;;;;;;;533.60;500.97;;;-0.50;99.90;;;;;;5044976;28;20477;-77
2023/04/03 04:31:13;;;;;;;519.67;487.80;;;-0.60;99.90;;;;;;5061711;28;21022;-78
2023/04/03 04:33:40;;;;;;;498.13;468.87;;;-0.60;99.90;;;;;;5068890;28;20196;-77
2023/04/03 04:36:10;;;;;;;484.17;457.17;;;-0.80;99.90;;;;;;5063666;28;20447;-77
2023/04/03 04:38:42;;;;;;;482.67;455.08;;;-1.00;99.90;;;;;;5033442;28;20248;-77
2023/04/03 04:41:10;;;;;;;490.17;461.88;;;-1.00;99.90;;;;;;5033319;28;20281;-77
2023/04/03 04:43:39;;;;;;;509.50;479.10;;;-1.20;99.90;;;;;;5038867;28;20213;-77
2023/04/03 04:46:08;;;;;;;512.75;481.85;;;-1.20;99.90;;;;;;5046619;28;20587;-77
2023/04/03 04:48:37;;;;;;;506.35;476.80;;;-1.20;99.90;;;;;;5070602;28;20255;-77
2023/04/03 04:51:05;;;;;;;524.10;491.80;;;-1.40;99.90;;;;;;5060612;28;20286;-77
2023/04/03 04:53:32;;;;;;;531.05;497.65;;;-1.30;99.90;;;;;;5053506;28;20211;-77
2023/04/03 04:55:59;;;;;;;536.05;502.05;;;-1.20;99.90;;;;;;5071674;28;20197;-77
2023/04/03 04:58:30;;;;;;;535.60;501.00;;;-1.30;99.90;;;;;;5072942;28;20212;-77
2023/04/03 05:01:05;;;;;;;541.03;507.40;;;-1.40;99.90;;;;;;5074897;28;20239;-77
2023/04/03 05:03:33;;;;;;;526.88;493.95;;;-1.50;99.90;;;;;;5074027;28;20230;-77
2023/04/03 05:06:04;;;;;;;545.03;509.92;;;-1.60;99.90;;;;;;5073646;28;20242;-76
2023/04/03 05:08:43;;;;;;;596.35;558.53;;;-1.60;99.90;;;;;;5054827;28;20217;-77
2023/04/03 05:11:10;;;;;;;597.85;559.88;;;-1.60;99.90;;;;;;5055663;28;20192;-77
2023/04/03 05:13:37;;;;;;;621.85;581.92;;;-1.70;99.90;;;;;;5058276;28;20184;-77
2023/04/03 05:16:05;;;;;;;634.25;593.70;;;-1.60;99.90;;;;;;5073624;28;20223;-77
2023/04/03 05:18:32;;;;;;;634.60;595.85;;;-1.50;99.90;;;;;;5054545;28;20220;-76
2023/04/03 05:21:04;;;;;;;635.22;594.22;;;-1.50;99.90;;;;;;5054867;28;20209;-76
2023/04/03 05:23:31;;;;;;;627.22;587.00;;;-1.70;99.90;;;;;;5036945;28;20704;-77
2023/04/03 05:25:58;;;;;;;644.50;602.28;;;-1.70;99.90;;;;;;5054245;28;20335;-76
2023/04/03 05:28:25;;;;;;;634.33;592.90;;;-1.70;99.90;;;;;;5065762;28;20245;-76
2023/04/03 05:30:56;;;;;;;637.70;595.20;;;-1.70;99.90;;;;;;5057937;28;20193;-76
2023/04/03 05:33:27;;;;;;;631.53;589.97;;;-1.60;99.90;;;;;;5055468;28;20204;-79
2023/04/03 05:35:54;;;;;;;641.15;598.60;;;-1.70;99.90;;;;;;5072954;28;20200;-76
2023/04/03 05:38:23;;;;;;;630.05;588.40;;;-1.70;99.90;;;;;;5065328;28;20239;-76
2023/04/03 05:40:49;;;;;;;634.90;592.90;;;-1.60;99.90;;;;;;5054569;28;20204;-76
2023/04/03 05:43:16;;;;;;;665.97;620.42;;;-1.60;99.90;;;;;;5060212;28;20204;-76
2023/04/03 05:45:44;;;;;;;680.95;634.70;;;-1.40;99.90;;;;;;5059249;28;20568;-76
2023/04/03 05:48:11;;;;;;;679.90;633.35;;;-1.30;99.90;;;;;;5066634;28;20212;-76
2023/04/03 05:50:41;;;;;;;676.28;630.03;;;-1.20;99.90;;;;;;5054181;28;20197;-76
2023/04/03 05:53:13;;;;;;;674.70;628.75;;;-1.20;99.90;;;;;;5054647;28;21388;-76
2023/04/03 05:55:42;;;;;;;676.33;631.13;;;-1.20;99.90;;;;;;5054179;28;20193;-76
2023/04/03 05:58:08;;;;;;;667.58;623.47;;;-1.20;99.90;;;;;;5064099;28;20209;-76
2023/04/03 06:00:35;;;;;;;677.78;631.28;;;-1.10;99.90;;;;;;5062409;28;20188;-76
2023/04/03 06:03:06;;;;;;;676.83;630.08;;;-1.00;99.90;;;;;;5065356;28;20213;-76
2023/04/03 06:05:33;;;;;;;700.60;653.42;;;-0.90;99.90;;;;;;5066373;28;20224;-77
2023/04/03 06:08:00;;;;;;;728.63;681.28;;;-0.70;99.90;;;;;;5057541;28;20255;-76
2023/04/03 06:10:28;;;;;;;726.30;678.33;;;-0.50;99.90;;;;;;5058998;28;20241;-76
2023/04/03 06:12:57;;;;;;;722.00;674.10;;;-0.50;99.90;;;;;;5055329;28;20653;-76
2023/04/03 06:15:24;;;;;;;722.78;676.10;;;-0.40;99.90;;;;;;5056716;28;20189;-76
2023/04/03 06:17:51;;;;;;;722.70;675.60;;;-0.40;99.90;;;;;;5056177;28;20221;-76
2023/04/03 06:20:18;;;;;;;723.53;673.77;;;-0.30;99.90;;;;;;5070792;28;20189;-76
2023/04/03 06:22:45;;;;;;;709.73;658.53;;;-0.20;99.90;;;;;;5059083;28;20478;-76
2023/04/03 06:25:12;;;;;;;715.27;665.60;;;-0.10;99.90;;;;;;5058646;28;20458;-76
2023/04/03 06:27:39;;;;;;;706.10;657.67;;;0.00;99.90;;;;;;5058674;28;20538;-76
2023/04/03 06:30:09;;;;;;;688.80;642.05;;;0.10;99.90;;;;;;5062181;28;20203;-76
2023/04/03 06:32:36;;;;;;;673.25;626.13;;;0.20;99.90;;;;;;5054331;28;20693;-77
2023/04/03 06:35:03;;;;;;;658.15;616.83;;;0.20;99.90;;;;;;5058019;28;20275;-77
2023/04/03 06:37:30;;;;;;;665.57;622.20;;;0.30;99.90;;;;;;5073003;28;20196;-77
2023/04/03 06:39:57;;;;;;;659.23;617.40;;;0.40;99.90;;;;;;5064072;28;20488;-77
2023/04/03 06:42:24;;;;;;;630.00;590.70;;;0.50;99.90;;;;;;5033203;28;20476;-77
2023/04/03 06:44:51;;;;;;;655.83;609.30;;;0.60;99.90;;;;;;5033106;28;20831;-77
2023/04/03 06:47:20;;;;;;;608.17;566.23;;;0.80;99.90;;;;;;5033036;28;20463;-77
2023/04/03 06:49:47;;;;;;;538.73;504.73;;;1.10;99.90;;;;;;5051696;28;20489;-77
2023/04/03 06:52:14;;;;;;;447.53;423.83;;;1.20;99.90;;;;;;5056459;28;20451;-77
2023/04/03 06:54:41;;;;;;;430.00;408.63;;;1.50;99.90;;;;;;5056436;28;20472;-77
2023/04/03 06:57:08;;;;;;;287.43;274.60;;;1.60;99.90;;;;;;5035396;28;20461;-78
2023/04/03 06:59:36;;;;;;;282.17;270.73;;;1.70;99.90;;;;;;5052292;28;20471;-77
2023/04/03 07:02:03;;;;;;;161.17;154.50;;;1.80;99.90;;;;;;5052453;28;20519;-77
2023/04/03 07:04:31;;;;;;;78.80;75.60;;;2.00;99.90;;;;;;5052257;28;20482;-77
2023/04/03 07:06:58;;;;;;;39.47;37.60;;;2.10;99.90;;;;;;5052776;28;20455;-77
2023/04/03 07:09:25;;;;;;;15.93;14.50;;;2.30;99.90;;;;;;5052304;28;20483;-77
2023/04/03 07:11:51;;;;;;;9.17;8.30;;;2.50;99.90;;;;;;5052355;28;20452;-77
2023/04/03 07:14:18;;;;;;;6.80;5.77;;;2.50;99.90;;;;;;5052718;28;20452;-77
2023/04/03 07:16:45;;;;;;;6.77;5.13;;;2.60;99.90;;;;;;5052720;28;20464;-78
2023/04/03 07:19:15;;;;;;;6.00;3.80;;;2.70;99.90;;;;;;5052203;28;20471;-77
2023/04/03 07:21:43;;;;;;;7.60;4.23;;;2.80;99.90;;;;;;5051975;28;20513;-77
2023/04/03 07:24:10;;;;;;;14.40;5.90;;;2.90;99.90;;;;;;5051917;28;20484;-82
2023/04/03 07:26:38;;;;;;;7.70;3.87;;;2.90;99.90;;;;;;5050679;28;20454;-82
2023/04/03 07:29:07;;;;;;;9.10;4.10;;;3.00;99.90;;;;;;5051677;28;20497;-79
2023/04/03 07:39:31;;;;;;;8.80;3.83;;;3.40;99.90;;;;;;5597498;22;20500;-86
2023/04/03 07:42:12;;;;;;;6.17;3.23;;;3.50;99.90;;;;;;5072695;28;20517;-85
2023/04/03 07:47:40;;;;;;;11.50;3.00;;;3.80;99.90;;;;;;5052248;28;20541;-85
2023/04/03 07:50:15;;;;;;;7.80;2.63;;;3.80;99.40;;;;;;5052196;28;20448;-85
2023/04/03 07:52:42;;;;;;;7.20;2.60;;;3.90;97.90;;;;;;5052325;28;20520;-86
2023/04/03 07:55:11;;;;;;;7.63;2.43;;;4.00;97.20;;;;;;5052029;28;20459;-86
2023/04/03 07:57:44;;;;;;;4.30;2.80;;;4.00;95.70;;;;;;5053285;28;20447;-86
2023/04/03 08:00:17;;;;;;;9.50;2.83;;;4.20;95.80;;;;;;5054850;28;20447;-87
2023/04/03 08:02:50;;;;;;;4.10;1.93;;;4.30;95.90;;;;;;5054094;28;20997;-89
2023/04/03 08:05:17;;;;;;;7.73;2.93;;;4.60;94.80;;;;;;5055415;28;20494;-89
2023/04/03 08:07:45;;;;;;;8.17;3.07;;;4.90;93.20;;;;;;5055466;28;20483;-89
2023/04/03 08:10:13;;;;;;;5.90;2.63;;;5.20;92.90;;;;;;5055554;28;20462;-89
2023/04/03 08:12:40;;;;;;;4.33;1.80;;;5.50;92.60;;;;;;5054185;28;20455;-89
2023/04/03 08:15:08;;;;;;;5.00;1.90;;;5.60;90.70;;;;;;5055051;28;20462;-89
2023/04/03 08:17:35;;;;;;;9.67;2.20;;;5.80;90.60;;;;;;5056165;28;20542;-89
2023/04/03 08:20:03;;;;;;;8.17;2.20;;;6.00;90.70;;;;;;5054333;28;20451;-90
2023/04/03 08:22:30;;;;;;;6.40;2.03;;;6.10;89.30;;;;;;5055481;28;20451;-90
2023/04/03 08:24:58;;;;;;;5.57;2.00;;;6.30;78.30;;;;;;5055752;28;20831;-91
2023/04/03 08:27:30;;;;;;;5.97;1.80;;;6.40;74.90;;;;;;5055294;28;20505;-90
2023/04/03 08:29:58;;;;;;;5.60;1.93;;;6.50;69.60;;;;;;5055992;28;20436;-89
2023/04/03 08:32:26;;;;;;;5.30;2.03;;;6.40;67.00;;;;;;5056341;28;20512;-90
2023/04/03 08:34:54;;;;;;;5.10;1.90;;;6.70;72.70;;;;;;5058707;28;20483;-90
2023/04/03 08:37:24;;;;;;;7.73;1.87;;;7.00;73.20;;;;;;5058867;28;20490;-91
2023/04/03 08:39:53;;;;;;;5.80;1.80;;;6.90;61.10;;;;;;5059862;28;20473;-91
2023/04/03 08:42:37;;;;;;;4.97;1.90;;;6.90;60.40;;;;;;5059492;28;20470;-91
2023/04/03 08:45:11;;;;;;;5.27;1.60;;;7.00;60.80;;;;;;5060149;28;20458;-91
2023/04/03 08:47:43;;;;;;;4.80;1.80;;;7.30;65.90;;;;;;5060031;28;20465;-91
2023/04/03 08:50:15;;;;;;;8.90;2.27;;;7.40;66.50;;;;;;5058981;28;20510;-91
2023/04/03 08:52:46;;;;;;;5.20;2.03;;;7.30;59.60;;;;;;5060558;28;20463;-90
2023/04/03 08:55:23;;;;;;;8.90;2.07;;;7.80;64.40;;;;;;5060597;28;20460;-90
2023/04/03 08:57:58;;;;;;;5.90;2.10;;;7.90;57.20;;;;;;5059126;28;20975;-90
2023/04/03 09:00:29;;;;;;;5.53;1.80;;;8.00;52.40;;;;;;5060424;28;20530;-89
2023/04/03 09:02:59;;;;;;;4.07;1.10;;;8.10;54.80;;;;;;5058551;28;20551;-91
2023/04/03 09:05:47;;;;;;;4.10;1.23;;;8.20;51.20;;;;;;5058770;28;20807;-91
2023/04/03 09:08:32;;;;;;;4.60;1.53;;;8.00;41.70;;;;;;5057921;28;20479;-91
2023/04/03 09:11:10;;;;;;;6.63;1.60;;;8.00;39.20;;;;;;5058526;28;20463;-91
2023/04/03 09:19:58;;;;;;;5.43;1.43;;;8.30;36.30;;;;;;5054736;28;20470;-91
2023/04/03 09:22:26;;;;;;;4.23;1.30;;;8.70;36.40;;;;;;5058579;28;20459;-92
2023/04/03 09:24:59;;;;;;;4.60;1.30;;;8.60;28.10;;;;;;5056798;28;20444;-91
2023/04/03 09:27:27;;;;;;;5.40;1.30;;;9.20;32.70;;;;;;5058241;28;20455;-90
2023/04/03 09:29:58;;;;;;;4.03;1.27;;;9.10;30.40;;;;;;5058611;28;20549;-90
2023/04/03 09:32:29;;;;;;;4.17;1.03;;;9.30;28.00;;;;;;5057206;28;20451;-91
2023/04/03 09:34:59;;;;;;;6.23;1.47;;;9.50;29.80;;;;;;5057817;28;20475;-90
2023/04/03 09:37:38;;;;;;;5.63;1.70;;;9.30;27.30;;;;;;5058239;28;20455;-92
2023/04/03 09:40:07;;;;;;;4.70;1.20;;;9.20;27.20;;;;;;5058328;28;20455;-91
2023/04/03 09:42:49;;;;;;;4.47;1.30;;;9.50;29.40;;;;;;5057469;28;20455;-90
2023/04/03 09:45:27;;;;;;;7.87;1.53;;;9.40;28.40;;;;;;5058015;28;20565;-91
2023/04/03 09:48:07;;;;;;;5.87;1.80;;;9.60;27.50;;;;;;5056072;28;20898;-90
2023/04/03 09:50:36;;;;;;;5.27;1.77;;;9.80;29.60;;;;;;5058057;28;20458;-90
2023/04/03 09:53:08;;;;;;;4.97;1.20;;;10.10;27.90;;;;;;5057241;28;20489;-91
2023/04/03 09:55:43;;;;;;;8.03;1.40;;;9.80;27.60;;;;;;5058051;28;20466;-90
2023/04/03 09:58:26;;;;;;;5.37;1.50;;;10.20;28.30;;;;;;5057921;28;20614;-91
2023/04/03 10:00:58;;;;;;;5.07;1.50;;;9.90;27.70;;;;;;5055432;28;20485;-90
2023/04/03 10:03:31;;;;;;;5.57;1.30;;;10.00;23.00;;;;;;5057503;28;20447;-90
2023/04/03 10:05:59;;;;;;;4.87;1.23;;;10.40;21.80;;;;;;5055535;28;20985;-91
2023/04/03 10:08:29;;;;;;;6.57;1.40;;;10.50;23.90;;;;;;5055545;28;20485;-89
2023/04/03 10:11:18;;;;;;;5.20;1.40;;;10.40;23.40;;;;;;5056904;28;21067;-89
2023/04/03 10:13:53;;;;;;;7.73;1.80;;;10.70;27.10;;;;;;5055010;28;20541;-79
2023/04/03 10:16:27;;;;;;;6.00;1.40;;;10.70;20.30;;;;;;5053676;28;20938;-78
2023/04/03 10:19:26;;;;;;;8.30;1.60;;;10.70;23.70;;;;;;5053774;28;20482;-78
2023/04/03 10:22:00;;;;;;;9.30;1.83;;;11.00;22.40;;;;;;5053562;28;20546;-78
2023/04/03 10:24:36;;;;;;;4.90;1.10;;;11.20;20.70;;;;;;5053687;28;20546;-78
2023/04/03 10:27:09;;;;;;;6.60;1.30;;;11.10;21.70;;;;;;5053673;28;20465;-75
2023/04/03 10:29:41;;;;;;;4.17;1.10;;;11.50;24.90;;;;;;5053292;28;20471;-76
2023/04/03 10:32:25;;;;;;;4.30;1.10;;;11.20;23.50;;;;;;5053351;28;20459;-76
2023/04/03 10:34:59;;;;;;;8.27;1.33;;;11.20;24.00;;;;;;5053385;28;20484;-77
2023/04/03 10:37:36;;;;;;;8.47;1.47;;;10.90;15.20;;;;;;5053196;28;20453;-76
2023/04/03 10:40:24;;;;;;;5.20;1.20;;;11.00;16.30;;;;;;5053364;28;20476;-77
2023/04/03 10:42:57;;;;;;;4.60;1.30;;;11.20;13.40;;;;;;5053371;28;20932;-76
2023/04/03 10:45:30;;;;;;;7.30;1.33;;;11.30;15.30;;;;;;5053584;28;20457;-76
2023/04/03 10:48:07;;;;;;;6.10;1.40;;;12.30;21.10;;;;;;5052235;28;20482;-76
2023/04/03 10:50:43;;;;;;;4.67;1.33;;;12.50;14.30;;;;;;5053627;28;20473;-76
2023/04/03 10:53:22;;;;;;;5.20;1.70;;;12.10;14.80;;;;;;5053385;28;20454;-76
2023/04/03 10:55:57;;;;;;;4.80;1.30;;;12.10;14.10;;;;;;5052577;28;20526;-76
2023/04/03 10:58:32;;;;;;;6.23;1.53;;;12.70;14.40;;;;;;5053023;28;20564;-76
2023/04/03 11:01:04;;;;;;;5.60;1.37;;;13.30;11.00;;;;;;5053312;28;20448;-77
2023/04/03 11:03:36;;;;;;;6.37;1.30;;;13.20;7.40;;;;;;5051590;28;20453;-77
2023/04/03 11:06:06;;;;;;;4.23;1.10;;;12.60;6.90;;;;;;5052717;28;20459;-76
2023/04/03 11:08:39;;;;;;;5.40;1.87;;;12.50;7.10;;;;;;5052926;28;20475;-76
2023/04/03 11:11:10;;;;;;;5.50;1.30;;;13.20;8.70;;;;;;5051351;28;20958;-77
2023/04/03 11:13:40;;;;;;;4.57;1.53;;;13.10;5.60;;;;;;5052384;28;20459;-76
2023/04/03 11:16:08;;;;;;;4.70;1.43;;;13.20;9.80;;;;;;5052445;28;20462;-76
2023/04/03 11:18:44;;;;;;;7.93;1.43;;;13.20;4.60;;;;;;5052219;28;20995;-76
2023/04/03 11:21:17;;;;;;;5.43;1.60;;;14.30;5.20;;;;;;5052639;28;20898;-76
2023/04/03 11:23:47;;;;;;;6.30;2.20;;;13.60;2.40;;;;;;5052506;28;20455;-77
2023/04/03 11:26:16;;;;;;;4.67;1.20;;;14.20;2.00;;;;;;5050980;28;20461;-77
2023/04/03 11:28:44;;;;;;;4.90;1.30;;;14.90;1.00;;;;;;5052181;28;20487;-77
2023/04/03 11:31:26;;;;;;;4.70;1.40;;;15.60;1.00;;;;;;5051179;28;20456;-77
2023/04/03 11:34:10;;;;;;;4.57;1.03;;;15.50;1.00;;;;;;5052112;28;20940;-77
2023/04/03 11:36:42;;;;;;;4.17;1.07;;;15.50;1.00;;;;;;5052278;28;20504;-77
2023/04/03 11:39:18;;;;;;;3.80;0.90;;;14.60;1.00;;;;;;5052050;28;20515;-77
2023/04/03 11:41:46;;;;;;;5.63;1.43;;;14.30;1.00;;;;;;5052284;28;20464;-77
2023/04/03 11:44:31;;;;;;;4.60;0.97;;;14.40;1.00;;;;;;5051692;28;20450;-77
2023/04/03 11:46:59;;;;;;;5.83;1.50;;;14.40;1.00;;;;;;5052201;28;20475;-77
2023/04/03 11:49:56;;;;;;;5.30;1.20;;;14.30;1.00;;;;;;5051837;28;20567;-77
2023/04/03 11:52:58;;;;;;;4.97;1.27;;;13.70;1.00;;;;;;5051057;28;20551;-77
2023/04/03 11:56:02;;;;;;;5.30;1.00;;;14.20;1.00;;;;;;5051646;28;20481;-77
2023/04/03 11:58:31;;;;;;;6.20;1.43;;;14.10;1.00;;;;;;5051442;28;20472;-77
2023/04/03 12:01:09;;;;;;;4.27;1.00;;;14.40;1.00;;;;;;5051446;28;20947;-77
2023/04/03 12:04:08;;;;;;;5.37;0.93;;;15.30;1.00;;;;;;5051440;28;20456;-77
2023/04/03 12:07:08;;;;;;;4.67;1.20;;;15.00;1.00;;;;;;5050127;28;20481;-77
2023/04/03 12:10:03;;;;;;;5.70;1.00;;;15.80;1.00;;;;;;5051668;28;20477;-77
2023/04/03 12:12:41;;;;;;;5.77;1.17;;;16.30;1.00;;;;;;5051341;28;20552;-77
2023/04/03 12:15:40;;;;;;;4.10;0.93;;;16.00;1.00;;;;;;5051658;28;20516;-77
2023/04/03 12:18:51;;;;;;;5.23;1.30;;;15.20;1.00;;;;;;5051766;28;20509;-77
2023/04/03 12:21:21;;;;;;;5.57;1.43;;;14.50;1.00;;;;;;5051420;28;21044;-77
2023/04/03 12:24:02;;;;;;;5.53;1.27;;;14.60;1.00;;;;;;5051461;28;20499;-76
2023/04/03 12:26:33;;;;;;;5.23;1.10;;;14.60;1.00;;;;;;5051345;28;20452;-76
2023/04/03 12:29:11;;;;;;;4.10;0.93;;;14.90;1.00;;;;;;5051257;28;20472;-77
2023/04/03 12:31:46;;;;;;;4.77;1.13;;;15.20;1.00;;;;;;5051547;28;20458;-77
2023/04/03 12:34:27;;;;;;;4.60;1.30;;;14.70;1.00;;;;;;5051068;28;20916;-77
2023/04/03 12:37:02;;;;;;;4.80;1.10;;;15.10;1.00;;;;;;5051615;28;20469;-77
2023/04/03 12:39:53;;;;;;;5.40;1.40;;;16.00;1.00;;;;;;5050953;28;20485;-77
2023/04/03 12:42:37;;;;;;;5.33;1.33;;;16.20;1.00;;;;;;5051343;28;20453;-77
2023/04/03 12:45:15;;;;;;;4.50;1.00;;;14.90;1.00;;;;;;5051115;28;20543;-76
2023/04/03 12:47:44;;;;;;;4.53;1.13;;;15.40;1.00;;;;;;5051380;28;20474;-77
2023/04/03 12:50:25;;;;;;;8.13;1.30;;;15.60;1.00;;;;;;5051321;28;20549;-77
2023/04/03 12:53:01;;;;;;;4.50;1.23;;;16.00;1.00;;;;;;5051103;28;20509;-77
2023/04/03 12:55:29;;;;;;;5.60;1.37;;;14.90;1.00;;;;;;5051043;28;20545;-77
2023/04/03 12:57:56;;;;;;;4.43;1.20;;;14.70;1.00;;;;;;5051066;28;20547;-77
2023/04/03 13:00:34;;;;;;;8.03;1.00;;;14.80;1.00;;;;;;5051443;28;20458;-77
2023/04/03 13:03:03;;;;;;;4.53;1.07;;;15.10;1.00;;;;;;5051128;28;20548;-77
2023/04/03 13:05:32;;;;;;;5.43;1.20;;;15.90;1.00;;;;;;5050717;28;20951;-76
2023/04/03 13:08:02;;;;;;;5.47;0.93;;;16.00;1.00;;;;;;5050969;28;20515;-76